createdAt,value
2019-05-15T00:00:48.155Z,5.25
2019-05-15T00:03:19.927Z,5.34
2019-05-15T00:05:51.229Z,5.27
2019-05-15T00:08:22.690Z,5.32
2019-05-15T00:10:54.039Z,5.41
2019-05-15T00:13:28.077Z,5.39
2019-05-15T00:15:59.087Z,5.41
2019-05-15T00:18:30.430Z,5.48
2019-05-15T00:21:02.636Z,5.50
2019-05-15T00:23:38.555Z,5.51
2019-05-15T00:26:09.562Z,5.49
2019-05-15T00:28:41.601Z,5.57
2019-05-15T00:31:12.958Z,5.55
2019-05-15T00:33:44.326Z,5.63
2019-05-15T00:36:19.209Z,5.63
2019-05-15T00:38:50.578Z,5.49
2019-05-15T00:41:21.771Z,5.42
2019-05-15T00:43:53.421Z,5.48
2019-05-15T00:46:24.661Z,5.29
2019-05-15T00:48:55.863Z,5.36
2019-05-15T00:51:28.477Z,5.38
2019-05-15T00:54:01.568Z,5.37
2019-05-15T00:56:32.957Z,5.31
2019-05-15T00:59:04.654Z,5.36
2019-05-15T01:01:38.105Z,5.46
2019-05-15T01:04:08.901Z,5.43
2019-05-15T01:06:40.268Z,5.48
2019-05-15T01:09:11.740Z,5.40
2019-05-15T01:11:42.979Z,5.38
2019-05-15T01:14:14.188Z,5.34
2019-05-15T01:16:45.952Z,5.41
2019-05-15T01:19:18.553Z,5.33
2019-05-15T01:21:50.052Z,5.30
2019-05-15T01:24:21.776Z,5.37
2019-05-15T01:26:53.028Z,5.38
2019-05-15T01:29:31.008Z,5.35
2019-05-15T01:31:59.224Z,5.17
2019-05-15T01:34:30.192Z,5.26
2019-05-15T01:37:01.568Z,5.25
2019-05-15T01:39:32.807Z,5.31
2019-05-15T01:42:04.099Z,5.35
2019-05-15T01:44:35.321Z,5.38
2019-05-15T01:47:08.428Z,5.46
2019-05-15T01:49:39.542Z,5.46
2019-05-15T01:52:10.863Z,5.35
2019-05-15T01:54:42.236Z,5.35
2019-05-15T01:57:13.559Z,5.27
2019-05-15T01:59:56.475Z,4.94
2019-05-15T02:02:19.129Z,4.97
2019-05-15T02:04:51.601Z,4.98
2019-05-15T02:07:22.979Z,5.06
2019-05-15T02:09:54.202Z,5.10
2019-05-15T02:12:25.759Z,5.20
2019-05-15T02:14:58.719Z,4.79
2019-05-15T02:17:30.098Z,4.91
2019-05-15T02:20:01.321Z,4.99
2019-05-15T02:22:32.755Z,5.04
2019-05-15T02:25:03.961Z,5.02
2019-05-15T02:27:35.369Z,5.14
2019-05-15T02:30:18.138Z,5.08
2019-05-15T02:32:40.379Z,5.04
2019-05-15T02:35:11.744Z,5.15
2019-05-15T02:37:43.229Z,5.30
2019-05-15T02:40:14.526Z,5.39
2019-05-15T02:42:49.019Z,5.30
2019-05-15T02:45:19.665Z,5.33
2019-05-15T02:47:51.210Z,5.10
2019-05-15T02:50:22.644Z,5.23
2019-05-15T02:52:53.876Z,5.17
2019-05-15T02:55:25.314Z,5.27
2019-05-15T02:57:59.024Z,5.25
2019-05-15T03:00:42.455Z,5.26
2019-05-15T03:03:03.634Z,5.29
2019-05-15T03:05:35.173Z,5.29
2019-05-15T03:08:09.282Z,5.36
2019-05-15T03:10:40.870Z,5.33
2019-05-15T03:13:12.538Z,5.37
2019-05-15T03:15:43.750Z,5.37
2019-05-15T03:18:15.097Z,5.36
2019-05-15T03:20:49.815Z,5.33
2019-05-15T03:23:20.042Z,5.29
2019-05-15T03:25:51.612Z,5.13
2019-05-15T03:28:23.146Z,5.33
2019-05-15T03:33:35.852Z,5.18
2019-05-15T03:36:02.794Z,5.21
2019-05-15T03:38:39.386Z,4.97
2019-05-15T03:41:10.580Z,4.80
2019-05-15T03:43:41.966Z,4.89
2019-05-15T03:46:13.189Z,4.92
2019-05-15T03:48:44.826Z,4.97
2019-05-15T03:51:19.632Z,4.96
2019-05-15T03:53:49.908Z,5.03
2019-05-15T03:56:21.376Z,4.84
2019-05-15T03:58:52.813Z,4.91
2019-05-15T04:01:34.213Z,4.91
2019-05-15T04:03:59.887Z,5.00
2019-05-15T04:06:30.144Z,5.09
2019-05-15T04:09:01.615Z,5.12
2019-05-15T04:11:32.891Z,5.07
2019-05-15T04:14:04.293Z,5.24
2019-05-15T04:16:35.493Z,5.18
2019-05-15T04:19:09.386Z,5.24
2019-05-15T04:21:44.670Z,5.09
2019-05-15T04:24:12.611Z,5.15
2019-05-15T04:26:44.632Z,5.29
2019-05-15T04:29:19.129Z,5.24
2019-05-15T04:31:59.826Z,5.29
2019-05-15T04:34:22.185Z,5.33
2019-05-15T04:36:53.494Z,5.27
2019-05-15T04:39:24.866Z,5.35
2019-05-15T04:41:58.885Z,5.37
2019-05-15T04:44:29.370Z,5.41
2019-05-15T04:47:00.631Z,5.32
2019-05-15T04:49:32.066Z,5.27
2019-05-15T04:52:03.985Z,5.29
2019-05-15T04:54:35.456Z,5.36
2019-05-15T04:57:09.293Z,5.33
2019-05-15T04:59:40.030Z,5.43
2019-05-15T05:02:17.533Z,5.50
2019-05-15T05:04:45.065Z,5.40
2019-05-15T05:07:18.794Z,5.32
2019-05-15T05:09:49.271Z,5.24
2019-05-15T05:12:20.823Z,5.22
2019-05-15T05:14:52.045Z,5.22
2019-05-15T05:17:23.883Z,5.31
2019-05-15T05:19:58.237Z,5.27
2019-05-15T05:22:28.900Z,5.35
2019-05-15T05:25:00.086Z,5.44
2019-05-15T05:27:31.299Z,5.48
2019-05-15T05:30:02.512Z,5.47
2019-05-15T05:32:35.263Z,5.51
2019-05-15T05:35:08.495Z,5.52
2019-05-15T05:37:40.505Z,5.45
2019-05-15T05:40:11.867Z,5.46
2019-05-15T05:42:43.248Z,5.41
2019-05-15T05:45:14.562Z,5.38
2019-05-15T05:47:50.532Z,5.47
2019-05-15T05:50:44.178Z,5.56
2019-05-15T05:53:30.288Z,5.48
2019-05-15T05:56:19.945Z,5.53
2019-05-15T05:59:09.629Z,5.52
2019-05-15T06:01:44.198Z,5.64
2019-05-15T06:04:18.406Z,5.68
2019-05-15T06:07:05.890Z,5.63
2019-05-15T06:09:22.379Z,5.72
2019-05-15T06:11:55.427Z,5.75
2019-05-15T06:14:28.847Z,5.82
2019-05-15T06:16:59.916Z,5.77
2019-05-15T06:19:31.513Z,5.78
2019-05-15T06:22:02.691Z,5.74
2019-05-15T06:24:34.763Z,5.72
2019-05-15T06:27:08.060Z,5.74
2019-05-15T06:29:38.911Z,5.83
2019-05-15T06:32:10.294Z,5.86
2019-05-15T06:34:42.144Z,5.93
2019-05-15T06:37:13.839Z,5.86
2019-05-15T06:39:45.387Z,5.93
2019-05-15T06:42:18.761Z,6.02
2019-05-15T06:44:49.564Z,6.13
2019-05-15T06:47:22.386Z,6.04
2019-05-15T06:49:53.751Z,6.03
2019-05-15T06:52:25.261Z,5.91
2019-05-15T06:54:56.503Z,5.96
2019-05-15T06:57:28.674Z,5.99
2019-05-15T07:00:01.568Z,5.91
2019-05-15T07:02:32.836Z,5.96
2019-05-15T07:05:04.315Z,6.03
2019-05-15T07:07:37.944Z,6.05
2019-05-15T07:10:09.301Z,6.11
2019-05-15T07:12:40.697Z,6.16
2019-05-15T07:15:12.246Z,6.15
2019-05-15T07:17:44.835Z,6.27
2019-05-15T07:20:18.619Z,6.29
2019-05-15T07:22:50.121Z,6.23
2019-05-15T07:25:21.445Z,6.23
2019-05-15T07:27:52.803Z,6.20
2019-05-15T07:30:25.951Z,6.21
2019-05-15T07:32:58.344Z,6.30
2019-05-15T07:35:30.258Z,6.21
2019-05-15T07:38:01.560Z,6.32
2019-05-15T07:40:32.821Z,6.20
2019-05-15T07:43:04.612Z,6.09
2019-05-15T07:45:42.582Z,6.16
2019-05-15T07:48:09.384Z,6.18
2019-05-15T07:50:40.918Z,6.15
2019-05-15T07:53:12.205Z,5.87
2019-05-15T07:55:43.436Z,5.97
2019-05-15T07:58:14.682Z,5.83
2019-05-15T08:00:49.068Z,5.96
2019-05-15T08:03:19.719Z,6.02
2019-05-15T08:05:59.117Z,6.14
2019-05-15T08:08:28.853Z,6.18
2019-05-15T08:10:59.019Z,6.15
2019-05-15T08:13:30.465Z,6.19
2019-05-15T08:16:01.674Z,6.34
2019-05-15T08:18:35.066Z,6.39
2019-05-15T08:21:08.810Z,6.18
2019-05-15T08:23:39.564Z,6.30
2019-05-15T08:26:11.014Z,6.33
2019-05-15T08:28:42.242Z,6.25
2019-05-15T08:31:13.493Z,6.38
2019-05-15T08:33:44.982Z,6.19
2019-05-15T08:36:18.290Z,6.23
2019-05-15T08:38:49.282Z,6.15
2019-05-15T08:41:20.681Z,6.25
2019-05-15T08:43:57.960Z,6.28
2019-05-15T08:46:29.484Z,6.39
2019-05-15T08:49:00.826Z,6.38
2019-05-15T08:51:33.694Z,6.39
2019-05-15T08:54:05.175Z,6.48
2019-05-15T08:56:39.635Z,6.32
2019-05-15T08:59:18.780Z,6.30
2019-05-15T09:01:50.138Z,6.36
2019-05-15T09:04:30.833Z,6.28
2019-05-15T09:06:54.392Z,6.27
2019-05-15T09:09:25.642Z,6.21
2019-05-15T09:11:58.506Z,6.23
2019-05-15T09:14:29.881Z,6.05
2019-05-15T09:17:01.386Z,6.07
2019-05-15T09:19:32.632Z,6.06
2019-05-15T09:22:10.289Z,6.14
2019-05-15T09:24:43.704Z,6.10
2019-05-15T09:27:14.917Z,6.15
2019-05-15T09:29:48.347Z,6.22
2019-05-15T09:32:28.500Z,6.25
2019-05-15T09:34:59.921Z,6.14
2019-05-15T09:37:33.630Z,6.23
2019-05-15T09:40:04.667Z,6.29
2019-05-15T09:42:38.603Z,6.36
2019-05-15T09:45:10.159Z,6.37
2019-05-15T09:47:42.367Z,6.43
2019-05-15T09:50:14.556Z,6.37
2019-05-15T09:52:45.756Z,6.44
2019-05-15T09:55:18.035Z,6.31
2019-05-15T09:57:51.121Z,6.19
2019-05-15T10:00:22.932Z,6.22
2019-05-15T10:02:56.149Z,6.26
2019-05-15T10:05:28.081Z,6.34
2019-05-15T10:08:01.082Z,6.36
2019-05-15T10:10:32.432Z,6.32
2019-05-15T10:13:03.619Z,5.97
2019-05-15T10:15:35.689Z,5.97
2019-05-15T10:18:09.944Z,5.85
2019-05-15T10:20:41.623Z,5.89
2019-05-15T10:23:14.719Z,6.00
2019-05-15T10:25:48.556Z,6.16
2019-05-15T10:28:19.686Z,6.25
2019-05-15T10:30:52.493Z,6.25
2019-05-15T10:33:24.327Z,6.27
2019-05-15T10:35:55.542Z,6.16
2019-05-15T10:38:28.500Z,6.27
2019-05-15T10:41:08.854Z,6.29
2019-05-15T10:43:35.506Z,6.17
2019-05-15T10:46:12.463Z,6.05
2019-05-15T10:48:39.967Z,5.90
2019-05-15T10:51:11.594Z,5.90
2019-05-15T10:53:43.128Z,5.87
2019-05-15T10:56:14.352Z,5.98
2019-05-15T10:58:50.186Z,6.04
2019-05-15T11:01:19.365Z,6.14
2019-05-15T11:03:50.814Z,6.20
2019-05-15T11:06:22.155Z,6.27
2019-05-15T11:08:54.965Z,6.24
2019-05-15T11:11:26.150Z,6.30
2019-05-15T11:14:00.366Z,6.42
2019-05-15T11:16:30.614Z,6.31
2019-05-15T11:19:01.843Z,6.35
2019-05-15T11:21:34.082Z,6.43
2019-05-15T11:24:05.404Z,6.36
2019-05-15T11:26:39.066Z,6.36
2019-05-15T11:29:10.476Z,6.34
2019-05-15T11:31:41.723Z,6.37
2019-05-15T11:34:12.904Z,6.42
2019-05-15T11:36:44.346Z,6.57
2019-05-15T11:39:18.256Z,6.49
2019-05-15T11:41:49.638Z,6.55
2019-05-15T11:44:21.143Z,6.70
2019-05-15T11:46:52.520Z,6.49
2019-05-15T11:49:23.728Z,6.55
2019-05-15T11:52:00.410Z,6.71
2019-05-15T11:54:29.596Z,6.56
2019-05-15T11:57:00.795Z,6.49
2019-05-15T11:59:32.494Z,6.53
2019-05-15T12:02:04.468Z,6.53
2019-05-15T12:04:38.181Z,6.49
2019-05-15T12:07:09.072Z,6.51
2019-05-15T12:09:40.534Z,6.52
2019-05-15T12:12:11.723Z,6.54
2019-05-15T12:14:43.191Z,6.65
2019-05-15T12:17:15.563Z,6.51
2019-05-15T12:19:54.972Z,6.49
2019-05-15T12:22:20.327Z,6.60
2019-05-15T12:25:00.713Z,6.66
2019-05-15T12:27:30.699Z,6.68
2019-05-15T12:30:02.084Z,6.72
2019-05-15T12:32:36.753Z,6.82
2019-05-15T12:35:06.497Z,6.71
2019-05-15T13:00:38.289Z,7.16
2019-05-15T13:03:09.958Z,6.91
2019-05-15T13:05:41.314Z,6.83
2019-05-15T13:08:14.184Z,7.02
2019-05-15T13:10:45.433Z,7.03
2019-05-15T13:13:18.668Z,7.01
2019-05-15T13:15:49.682Z,6.93
2019-05-15T13:18:21.089Z,6.84
2019-05-15T13:20:52.310Z,6.70
2019-05-15T13:23:23.770Z,6.74
2019-05-15T13:25:55.024Z,6.71
2019-05-15T13:28:28.990Z,6.79
2019-05-15T13:31:02.581Z,6.69
2019-05-15T13:33:38.624Z,6.83
2019-05-15T13:36:09.525Z,6.83
2019-05-15T13:38:40.991Z,6.80
2019-05-15T13:41:12.604Z,6.81
2019-05-15T13:43:44.117Z,6.81
2019-05-15T13:46:15.448Z,7.00
2019-05-15T13:48:49.011Z,6.80
2019-05-15T13:51:20.011Z,6.76
2019-05-15T13:53:53.648Z,6.61
2019-05-15T13:56:24.464Z,6.50
2019-05-15T13:58:55.702Z,6.49
2019-05-15T14:01:28.686Z,6.52
2019-05-15T14:04:00.208Z,6.59
2019-05-15T14:06:31.815Z,6.65
2019-05-15T14:09:08.573Z,6.56
2019-05-15T14:11:39.244Z,6.63
2019-05-15T14:14:10.515Z,6.61
2019-05-15T14:16:41.880Z,6.57
2019-05-15T14:19:13.069Z,6.29
2019-05-15T14:21:44.324Z,6.29
2019-05-15T14:24:17.900Z,6.38
2019-05-15T14:26:48.770Z,6.38
2019-05-15T14:29:20.043Z,6.38
2019-05-15T14:31:51.281Z,6.35
2019-05-15T14:34:22.890Z,6.28
2019-05-15T14:36:54.217Z,6.14
2019-05-15T14:39:25.805Z,6.11
2019-05-15T14:41:58.371Z,6.08
2019-05-15T14:44:31.771Z,6.15
2019-05-15T14:47:03.252Z,6.28
2019-05-15T14:49:35.764Z,6.21
2019-05-15T14:52:09.284Z,6.28
2019-05-15T14:54:40.597Z,6.30
2019-05-15T14:57:11.867Z,6.30
2019-05-15T14:59:43.234Z,6.40
2019-05-15T15:02:14.763Z,6.62
2019-05-15T15:04:48.569Z,6.38
2019-05-15T15:07:19.045Z,6.38
2019-05-15T15:09:55.143Z,6.24
2019-05-15T15:12:39.737Z,6.29
2019-05-15T15:15:20.360Z,6.25
2019-05-15T15:17:51.583Z,6.01
2019-05-15T15:20:30.776Z,6.14
2019-05-15T15:23:12.402Z,6.27
2019-05-15T15:25:49.179Z,6.34
2019-05-15T15:28:22.143Z,6.40
2019-05-15T15:30:58.319Z,6.42
2019-05-15T15:33:39.168Z,6.37
2019-05-15T15:36:17.644Z,6.44
2019-05-15T15:38:55.127Z,6.35
2019-05-15T15:41:28.605Z,6.22
2019-05-15T15:44:02.997Z,6.33
2019-05-15T15:46:39.827Z,6.18
2019-05-15T15:52:43.024Z,6.13
2019-05-15T15:55:14.257Z,6.18
2019-05-15T15:57:45.732Z,6.13
2019-05-15T16:00:18.360Z,6.11
2019-05-15T16:02:50.651Z,6.15
2019-05-15T16:05:23.478Z,6.13
2019-05-15T16:07:55.373Z,6.06
2019-05-15T16:10:28.267Z,5.83
2019-05-15T16:13:00.318Z,5.87
2019-05-15T16:15:32.341Z,5.85
2019-05-15T16:18:05.476Z,5.88
2019-05-15T16:20:39.286Z,5.93
2019-05-15T16:23:09.850Z,5.88
2019-05-15T16:25:41.759Z,5.98
2019-05-15T16:28:12.930Z,6.07
2019-05-15T16:30:51.127Z,5.71
2019-05-15T16:33:18.449Z,5.75
2019-05-15T16:35:50.169Z,5.61
2019-05-15T16:38:21.856Z,5.67
2019-05-15T16:40:53.096Z,5.65
2019-05-15T16:43:24.493Z,5.64
2019-05-15T16:45:58.636Z,5.66
2019-05-15T16:48:30.291Z,5.80
2019-05-15T16:51:04.067Z,5.77
2019-05-15T16:53:38.310Z,5.79
2019-05-15T16:56:09.603Z,5.81
2019-05-15T16:58:41.314Z,5.66
2019-05-15T17:01:18.469Z,5.57
2019-05-15T17:03:49.167Z,5.72
2019-05-15T17:06:21.530Z,5.58
2019-05-15T17:08:53.168Z,5.62
2019-05-15T17:11:24.402Z,5.61
2019-05-15T17:13:55.789Z,5.49
2019-05-15T17:16:27.019Z,5.47
2019-05-15T17:18:59.201Z,5.37
2019-05-15T17:21:30.841Z,5.37
2019-05-15T17:24:02.059Z,5.49
2019-05-15T17:26:33.848Z,5.27
2019-05-15T17:29:05.202Z,5.31
2019-05-15T17:31:37.960Z,5.38
2019-05-15T17:34:09.403Z,5.24
2019-05-15T17:36:48.783Z,5.19
2019-05-15T17:39:36.746Z,5.21
2019-05-15T17:42:09.621Z,5.25
2019-05-15T17:44:45.216Z,5.19
2019-05-15T17:47:22.443Z,5.17
2019-05-15T17:50:00.114Z,5.21
2019-05-15T17:52:41.317Z,5.32
2019-05-15T17:55:18.210Z,5.33
2019-05-15T17:57:57.135Z,5.12
2019-05-15T18:00:23.639Z,5.06
2019-05-15T18:02:55.283Z,4.93
2019-05-15T18:05:28.316Z,5.00
2019-05-15T18:08:00.364Z,4.96
2019-05-15T18:10:33.108Z,5.01
2019-05-15T18:13:04.995Z,5.12
2019-05-15T18:15:38.595Z,5.09
2019-05-15T18:18:09.976Z,5.07
2019-05-15T18:20:41.351Z,5.05
2019-05-15T18:23:12.811Z,4.96
2019-05-15T18:25:44.607Z,4.91
2019-05-15T18:28:18.671Z,5.00
2019-05-15T18:30:49.321Z,4.80
2019-05-15T18:33:20.692Z,4.91
2019-05-15T18:35:52.140Z,4.91
2019-05-15T18:38:23.347Z,4.96
2019-05-15T18:40:55.307Z,4.97
2019-05-15T18:43:28.387Z,4.90
2019-05-15T18:45:59.902Z,4.67
2019-05-15T18:48:31.688Z,4.75
2019-05-15T18:51:03.378Z,4.76
2019-05-15T18:53:38.803Z,4.52
2019-05-15T18:56:12.510Z,4.64
2019-05-15T18:58:44.113Z,4.70
2019-05-15T19:01:17.678Z,4.64
2019-05-15T19:03:50.300Z,4.72
2019-05-15T19:06:22.070Z,4.63
2019-05-15T19:08:53.899Z,4.62
2019-05-15T19:11:25.207Z,4.62
2019-05-15T19:13:58.919Z,4.69
2019-05-15T19:16:31.734Z,4.79
2019-05-15T19:19:03.242Z,4.77
2019-05-15T19:21:38.102Z,4.94
2019-05-15T19:24:09.873Z,4.90
2019-05-15T19:26:41.906Z,4.85
2019-05-15T19:29:13.506Z,4.88
2019-05-15T19:31:45.848Z,4.85
2019-05-15T19:34:18.970Z,4.92
2019-05-15T19:36:50.094Z,4.91
2019-05-15T19:39:21.907Z,4.85
2019-05-15T19:41:53.159Z,4.84
2019-05-15T19:44:24.384Z,4.85
2019-05-15T19:46:58.458Z,4.94
2019-05-15T19:49:29.621Z,4.88
2019-05-15T19:52:01.304Z,4.98
2019-05-15T19:54:32.681Z,5.00
2019-05-15T19:57:04.642Z,4.98
2019-05-15T19:59:54.264Z,4.96
2019-05-15T20:02:25.458Z,4.97
2019-05-15T20:05:14.802Z,4.92
2019-05-15T20:08:03.958Z,4.76
2019-05-15T20:10:35.176Z,4.90
2019-05-15T20:13:06.967Z,4.91
2019-05-15T20:15:38.579Z,4.92
2019-05-15T20:18:11.425Z,4.91
2019-05-15T20:20:42.717Z,4.83
2019-05-15T20:23:14.162Z,4.65
2019-05-15T20:25:46.137Z,4.69
2019-05-15T20:28:19.142Z,4.69
2019-05-15T20:30:50.351Z,4.65
2019-05-15T20:33:22.700Z,4.73
2019-05-15T20:35:53.919Z,4.70
2019-05-15T20:38:25.099Z,4.60
2019-05-15T20:40:59.476Z,4.66
2019-05-15T20:43:29.651Z,4.70
2019-05-15T20:46:03.088Z,4.68
2019-05-15T20:48:38.262Z,4.70
2019-05-15T20:51:09.885Z,4.72
2019-05-15T20:53:41.369Z,4.80
2019-05-15T20:56:12.700Z,4.80
2019-05-15T20:58:44.287Z,4.73
2019-05-15T21:01:18.076Z,4.72
2019-05-15T21:03:51.046Z,4.74
2019-05-15T21:06:21.802Z,4.88
2019-05-15T21:08:53.008Z,4.89
2019-05-15T21:11:24.222Z,4.84
2019-05-15T21:13:55.426Z,4.73
2019-05-15T21:16:28.114Z,4.78
2019-05-15T21:19:00.367Z,4.79
2019-05-15T21:21:31.873Z,4.70
2019-05-15T21:24:03.313Z,4.66
2019-05-15T21:26:35.020Z,4.79
2019-05-15T21:29:07.862Z,4.72
2019-05-15T21:31:40.034Z,4.69
2019-05-15T21:34:11.443Z,4.67
2019-05-15T21:36:42.751Z,4.56
2019-05-15T21:39:15.566Z,4.51
2019-05-15T21:41:48.838Z,4.53
2019-05-15T21:44:19.768Z,4.56
2019-05-15T21:46:52.050Z,4.57
2019-05-15T21:49:23.256Z,4.79
2019-05-15T21:51:54.475Z,4.66
2019-05-15T21:54:28.041Z,4.55
2019-05-15T21:57:12.766Z,4.58
2019-05-15T21:59:32.355Z,4.64
2019-05-15T22:02:05.550Z,4.61
2019-05-15T22:04:49.095Z,4.54
2019-05-15T22:07:10.138Z,4.55
2019-05-15T22:09:41.619Z,4.59
2019-05-15T22:12:28.551Z,4.55
2019-05-15T22:15:04.983Z,4.60
2019-05-15T22:17:38.622Z,4.60
2019-05-15T22:20:10.403Z,4.56
2019-05-15T22:22:50.489Z,4.54
2019-05-15T22:25:38.521Z,4.54
2019-05-15T22:28:10.019Z,4.46
2019-05-15T22:30:41.987Z,4.35
2019-05-15T22:33:13.954Z,4.39
2019-05-15T22:35:45.172Z,4.54
2019-05-15T22:38:18.104Z,4.49
2019-05-15T22:40:49.687Z,4.55
2019-05-15T22:43:22.050Z,4.60
2019-05-15T22:45:53.920Z,4.61
2019-05-15T22:48:25.125Z,4.61
2019-05-15T22:50:58.341Z,4.57
2019-05-15T22:53:29.608Z,4.51
2019-05-15T22:56:01.006Z,4.56
2019-05-15T22:58:34.879Z,4.60
2019-05-15T23:01:08.870Z,4.48
2019-05-15T23:03:39.685Z,4.53
2019-05-15T23:06:11.125Z,4.43
2019-05-15T23:08:42.375Z,4.44
2019-05-15T23:11:13.635Z,4.48
2019-05-15T23:13:44.839Z,4.57
2019-05-15T23:16:18.248Z,4.54
2019-05-15T23:18:49.655Z,4.44
2019-05-15T23:21:21.354Z,4.54
2019-05-15T23:23:52.985Z,4.51
2019-05-15T23:26:24.239Z,4.62
2019-05-15T23:28:55.894Z,4.47
2019-05-15T23:31:28.096Z,4.43
2019-05-15T23:33:59.503Z,4.49
2019-05-15T23:36:30.974Z,4.54
2019-05-15T23:39:02.233Z,4.55
2019-05-15T23:41:33.654Z,4.65
2019-05-15T23:44:04.911Z,4.49
2019-05-15T23:46:38.090Z,4.54
2019-05-15T23:49:09.095Z,4.57
2019-05-15T23:51:40.522Z,4.53
2019-05-15T23:54:11.721Z,4.46
2019-05-15T23:56:43.065Z,4.50
2019-05-15T23:59:14.622Z,4.57
